Time;durP1;ratioP1;P1;durP2;ratioP2;P2;SDS_P1;SDS_P2;PMS_P1;PMS_P2;Temp;Humidity;BMP_temperature;BMP_pressure;BME280_temperature;BME280_humidity;BME280_pressure;Samples;Min_cycle;Max_cycle;Signal;HPM_P1;HPM_P2
2023/05/08 00:01:30;;;;;;;1.10;0.98;;;;;;;18.73;67.84;101986.59;6123446;23;20010;-44
2023/05/08 00:03:55;;;;;;;0.90;0.88;;;;;;;18.73;67.95;101988.41;6123448;23;20476;-46
2023/05/08 00:06:21;;;;;;;1.02;0.90;;;;;;;18.73;67.82;101985.72;6123709;23;20006;-46
2023/05/08 00:08:46;;;;;;;1.20;1.10;;;;;;;18.72;67.66;101998.34;6123743;23;20064;-44
2023/05/08 00:11:12;;;;;;;1.15;0.98;;;;;;;18.72;67.41;102001.06;6123787;23;20010;-44
2023/05/08 00:13:39;;;;;;;1.00;1.00;;;;;;;18.72;67.71;102001.06;6123211;23;20006;-44
2023/05/08 00:16:04;;;;;;;1.50;0.88;;;;;;;18.72;67.80;101998.34;6123673;23;20377;-45
2023/05/08 00:18:30;;;;;;;1.20;1.10;;;;;;;18.72;67.60;101990.25;6123430;23;20057;-46
2023/05/08 00:20:55;;;;;;;2.15;1.15;;;;;;;18.72;67.75;101987.56;6123608;23;20061;-44
2023/05/08 00:23:21;;;;;;;1.13;1.02;;;;;;;18.72;67.97;101984.03;6123460;23;20082;-45
2023/05/08 00:25:46;;;;;;;1.52;0.98;;;;;;;18.72;67.87;101989.41;6124398;23;20353;-44
2023/05/08 00:28:12;;;;;;;0.95;0.95;;;;;;;18.72;67.98;101989.41;6123315;23;20433;-45
2023/05/08 00:30:37;;;;;;;1.70;1.15;;;;;;;18.72;68.00;101984.88;6123224;23;20013;-44
2023/05/08 00:33:03;;;;;;;2.90;0.80;;;;;;;18.72;67.91;101982.16;6123276;23;20492;-45
2023/05/08 00:35:28;;;;;;;1.67;1.10;;;;;;;18.72;68.04;101986.72;6123445;23;20045;-46
2023/05/08 00:37:53;;;;;;;1.35;1.13;;;;;;;18.73;68.19;101988.41;6123245;23;20005;-45
2023/05/08 00:40:19;;;;;;;1.85;1.10;;;;;;;18.71;67.93;101991.22;6123805;23;20006;-46
2023/05/08 00:42:44;;;;;;;0.90;0.90;;;;;;;18.72;68.70;101989.41;6122994;23;20002;-45
2023/05/08 00:45:10;;;;;;;2.50;0.90;;;;;;;18.72;68.03;101982.16;6097095;23;20073;-44
2023/05/08 00:47:35;;;;;;;1.75;1.00;;;;;;;18.71;68.13;101983.13;6123286;23;20006;-46
2023/05/08 00:50:01;;;;;;;1.52;1.10;;;;;;;18.71;68.13;101985.84;6123072;23;20024;-44
2023/05/08 00:52:29;;;;;;;1.20;1.10;;;;;;;18.71;68.11;101982.28;6123143;23;20088;-45
2023/05/08 00:54:55;;;;;;;0.80;0.80;;;;;;;18.71;68.06;101975.03;6123066;23;20306;-44
2023/05/08 00:57:21;;;;;;;1.00;0.98;;;;;;;18.71;68.11;101976.88;6123704;23;20071;-45
2023/05/08 00:59:48;;;;;;;1.40;1.00;;;;;;;18.70;68.14;101983.28;6123451;23;20006;-44
2023/05/08 01:02:15;;;;;;;1.00;0.95;;;;;;;18.70;67.94;101977.88;6123163;23;20005;-44
2023/05/08 01:04:43;;;;;;;1.00;0.85;;;;;;;18.70;68.00;101984.13;6123357;23;20416;-44
2023/05/08 01:07:09;;;;;;;1.02;1.00;;;;;;;18.69;68.07;101979.72;6122789;23;20006;-44
2023/05/08 01:09:35;;;;;;;1.42;0.98;;;;;;;18.69;68.09;101974.31;6123133;23;20033;-44
2023/05/08 01:12:13;;;;;;;1.00;0.73;;;;;;;18.70;68.01;101981.44;6123045;23;20002;-45
2023/05/08 01:14:46;;;;;;;0.90;0.90;;;;;;;18.69;68.07;101976.16;6122846;23;20018;-44
2023/05/08 01:17:37;;;;;;;1.20;1.10;;;;;;;18.71;68.31;101982.28;6122893;23;20005;-45
2023/05/08 01:20:24;;;;;;;0.85;0.85;;;;;;;18.70;68.09;101975.19;6122925;23;20055;-46
2023/05/08 01:23:02;;;;;;;0.95;0.90;;;;;;;18.70;67.96;101972.50;6123542;23;20010;-44
2023/05/08 01:25:59;;;;;;;0.90;0.82;;;;;;;18.70;68.11;101970.66;6123111;23;20002;-44
2023/05/08 01:28:55;;;;;;;1.10;1.00;;;;;;;18.71;67.94;101966.94;6122762;23;20049;-45
2023/05/08 01:31:30;;;;;;;1.05;1.00;;;;;;;18.70;68.07;101972.50;6123820;23;20336;-45
2023/05/08 01:34:05;;;;;;;1.25;0.90;;;;;;;18.70;68.16;101975.19;6122735;23;20002;-44
2023/05/08 01:36:36;;;;;;;0.95;0.88;;;;;;;18.69;67.86;101973.47;6122909;23;20006;-44
2023/05/08 01:39:31;;;;;;;0.80;0.80;;;;;;;18.70;67.78;101984.13;6123029;23;20065;-45
2023/05/08 01:42:06;;;;;;;1.13;1.08;;;;;;;18.69;67.81;101977.00;6122706;23;20196;-44
2023/05/08 01:44:45;;;;;;;1.75;1.20;;;;;;;18.68;67.96;101975.31;6122639;23;20306;-45
2023/05/08 01:47:11;;;;;;;0.90;0.90;;;;;;;18.68;67.79;101978.00;6122735;23;20002;-43
2023/05/08 01:49:45;;;;;;;0.90;0.90;;;;;;;18.67;68.09;101976.28;6122777;23;20052;-44
2023/05/08 01:52:32;;;;;;;1.60;0.90;;;;;;;18.69;67.74;101978.84;6123009;23;20085;-45
2023/05/08 01:55:09;;;;;;;1.20;1.10;;;;;;;18.69;68.00;101978.84;6122586;23;20006;-44
2023/05/08 01:57:39;;;;;;;2.03;0.90;;;;;;;18.67;67.95;101970.03;6123029;23;20017;-44
2023/05/08 02:00:06;;;;;;;0.70;0.70;;;;;;;18.67;67.97;101981.66;6122744;23;20413;-45
2023/05/08 02:02:33;;;;;;;0.80;0.80;;;;;;;18.66;67.97;101982.66;6122659;23;20010;-46
2023/05/08 02:05:03;;;;;;;1.13;1.00;;;;;;;18.66;67.92;101988.06;6122987;23;20412;-44
2023/05/08 02:07:29;;;;;;;0.82;0.82;;;;;;;18.65;67.87;101983.63;6122985;23;20468;-45
2023/05/08 02:09:56;;;;;;;1.05;0.95;;;;;;;18.66;67.72;101979.97;6123333;23;20014;-45
2023/05/08 02:12:23;;;;;;;1.85;0.80;;;;;;;18.64;67.81;101984.63;6123284;23;20013;-44
2023/05/08 02:14:52;;;;;;;0.70;0.70;;;;;;;18.65;67.77;101989.03;6122356;23;20010;-45
2023/05/08 02:17:19;;;;;;;1.05;1.00;;;;;;;18.65;67.73;101983.63;6122904;23;20439;-45
2023/05/08 02:19:46;;;;;;;0.82;0.80;;;;;;;18.65;68.13;101982.78;6122778;23;20017;-44
2023/05/08 02:22:15;;;;;;;0.82;0.80;;;;;;;18.65;68.06;101990.88;6122859;23;20010;-45
2023/05/08 02:24:43;;;;;;;0.98;0.95;;;;;;;18.65;67.78;101988.19;6122859;23;20006;-44
2023/05/08 02:27:10;;;;;;;0.90;0.90;;;;;;;18.65;67.89;101993.56;6122684;23;20009;-44
2023/05/08 02:29:36;;;;;;;2.03;0.98;;;;;;;18.65;67.98;101985.47;6122725;23;20006;-45
2023/05/08 02:32:02;;;;;;;1.08;0.98;;;;;;;18.65;67.60;101986.34;6123024;23;20013;-46
2023/05/08 02:34:29;;;;;;;1.10;1.00;;;;;;;18.63;68.05;101988.28;6124355;23;20093;-45
2023/05/08 02:36:56;;;;;;;1.30;0.93;;;;;;;18.64;67.82;101989.16;6124491;23;20017;-44
2023/05/08 02:39:26;;;;;;;1.05;0.90;;;;;;;18.64;67.86;101990.03;6124807;23;20006;-45
2023/05/08 02:41:51;;;;;;;0.82;0.82;;;;;;;18.64;68.11;101991.84;6124739;23;20008;-45
2023/05/08 02:44:17;;;;;;;1.00;0.80;;;;;;;18.64;67.94;101987.34;6124172;23;20025;-46
2023/05/08 02:47:05;;;;;;;1.98;1.00;;;;;;;18.67;67.97;101992.47;6124236;23;20012;-45
2023/05/08 02:49:51;;;;;;;4.55;1.00;;;;;;;18.68;68.04;101994.19;6124066;23;20064;-45
2023/05/08 02:52:23;;;;;;;3.90;1.00;;;;;;;18.65;68.24;101990.88;6124540;23;20016;-45
2023/05/08 02:55:06;;;;;;;1.10;0.80;;;;;;;18.67;68.30;101992.47;6124504;23;20010;-45
2023/05/08 02:57:42;;;;;;;1.73;1.00;;;;;;;18.67;68.25;101991.63;6124234;23;20013;-45
2023/05/08 03:00:13;;;;;;;1.42;1.08;;;;;;;18.65;68.12;101989.03;6124078;23;20061;-45
2023/05/08 03:02:48;;;;;;;3.08;1.17;;;;;;;18.65;68.06;101989.03;6124139;23;20496;-45
2023/05/08 03:05:19;;;;;;;1.58;0.90;;;;;;;18.64;68.15;101986.44;6124298;23;19998;-45
2023/05/08 03:07:49;;;;;;;1.08;0.98;;;;;;;18.64;67.98;101981.94;6124221;23;20309;-44
2023/05/08 03:10:15;;;;;;;2.03;1.00;;;;;;;18.63;68.25;101985.59;6123987;23;20002;-45
2023/05/08 03:12:45;;;;;;;1.73;1.10;;;;;;;18.63;68.21;101988.28;6123875;23;20010;-44
2023/05/08 03:15:45;;;;;;;1.48;1.10;;;;;;;18.64;68.07;101981.06;6123510;23;20005;-46
2023/05/08 03:18:15;;;;;;;0.98;0.88;;;;;;;18.64;67.82;101986.44;6118009;23;20013;-44
2023/05/08 03:20:51;;;;;;;2.05;0.70;;;;;;;18.64;67.85;101981.94;6123904;23;20009;-45
2023/05/08 03:23:19;;;;;;;2.45;1.10;;;;;;;18.63;67.76;101982.91;6124050;23;20082;-44
2023/05/08 03:25:45;;;;;;;1.30;0.95;;;;;;;18.64;67.90;101987.34;6123816;23;20065;-44
2023/05/08 03:28:12;;;;;;;1.00;1.00;;;;;;;18.63;68.04;101979.34;6124120;23;20010;-44
2023/05/08 03:30:40;;;;;;;1.23;1.10;;;;;;;18.62;68.19;101983.91;6123883;23;20329;-45
2023/05/08 03:33:06;;;;;;;3.55;1.10;;;;;;;18.62;68.14;101981.22;6123609;23;20017;-49
2023/05/08 03:35:36;;;;;;;3.75;1.20;;;;;;;18.62;68.06;101983.91;6124010;23;20006;-46
2023/05/08 03:38:02;;;;;;;1.88;1.10;;;;;;;18.62;68.17;101981.22;6123658;23;20334;-46
2023/05/08 03:40:28;;;;;;;0.95;0.88;;;;;;;18.62;68.10;101980.31;6124425;23;20014;-44
2023/05/08 03:42:54;;;;;;;1.05;0.98;;;;;;;18.62;67.97;101977.63;6098344;23;20014;-44
2023/05/08 03:45:20;;;;;;;0.80;0.80;;;;;;;18.61;68.27;101982.16;6123409;23;20491;-45
2023/05/08 03:47:46;;;;;;;2.00;0.85;;;;;;;18.61;68.10;101976.78;6123720;23;20005;-46
2023/05/08 03:50:12;;;;;;;1.00;0.90;;;;;;;18.61;68.00;101974.06;6097578;23;20022;-47
2023/05/08 03:52:37;;;;;;;4.63;1.17;;;;;;;18.60;68.17;101972.38;6123650;23;20455;-45
2023/05/08 03:55:03;;;;;;;1.20;1.00;;;;;;;18.60;68.15;101975.06;6123555;23;20006;-44
2023/05/08 03:57:44;;;;;;;0.90;0.90;;;;;;;18.61;67.96;101971.38;6124126;23;20006;-44
2023/05/08 04:00:21;;;;;;;1.10;0.98;;;;;;;18.60;68.08;101980.47;6123364;23;20116;-45
2023/05/08 04:02:52;;;;;;;1.13;1.02;;;;;;;18.60;68.00;101980.47;6123671;23;20008;-45
2023/05/08 04:05:36;;;;;;;0.80;0.80;;;;;;;18.62;67.84;101972.22;6123557;23;20001;-45
2023/05/08 04:08:20;;;;;;;1.10;1.00;;;;;;;18.61;67.89;101973.22;6123703;23;20040;-46
2023/05/08 04:10:54;;;;;;;2.28;1.10;;;;;;;18.60;67.87;101969.69;6123647;23;20421;-45
2023/05/08 04:13:27;;;;;;;0.85;0.85;;;;;;;18.59;67.85;101978.75;6123551;23;20006;-44
2023/05/08 04:16:06;;;;;;;0.90;0.90;;;;;;;18.61;67.76;101976.78;6123459;23;20337;-45
2023/05/08 04:18:35;;;;;;;1.17;1.10;;;;;;;18.59;67.76;101980.59;6123309;23;20032;-47
2023/05/08 04:21:02;;;;;;;1.80;1.00;;;;;;;18.59;68.09;101986.84;6123163;23;20005;-47
2023/05/08 04:23:28;;;;;;;1.60;1.17;;;;;;;18.59;67.57;101989.53;6124168;23;20013;-44
2023/05/08 04:25:55;;;;;;;1.10;1.00;;;;;;;18.59;67.90;101986.84;6123300;23;20017;-47
2023/05/08 04:28:21;;;;;;;1.33;0.90;;;;;;;18.59;67.71;101991.38;6123625;23;20024;-45
2023/05/08 04:30:47;;;;;;;1.30;1.20;;;;;;;18.59;68.03;101994.94;6123120;23;20009;-44
2023/05/08 04:33:14;;;;;;;1.15;1.08;;;;;;;18.58;67.80;101993.19;6123162;23;20006;-45
2023/05/08 04:35:39;;;;;;;1.10;1.00;;;;;;;18.58;67.73;101993.19;6097266;23;20013;-45
2023/05/08 04:38:05;;;;;;;1.10;1.00;;;;;;;18.59;67.85;101991.38;6123121;23;20010;-44
2023/05/08 04:40:30;;;;;;;1.10;1.10;;;;;;;18.58;67.65;101990.50;6124163;23;20017;-44
2023/05/08 04:42:56;;;;;;;1.02;0.98;;;;;;;18.59;68.04;101991.38;6123727;23;20014;-46
2023/05/08 04:45:21;;;;;;;0.90;0.90;;;;;;;18.58;67.60;101997.75;6123139;23;20328;-44
2023/05/08 04:47:47;;;;;;;0.98;0.98;;;;;;;18.57;67.70;102004.97;6123026;23;20102;-44
2023/05/08 04:50:12;;;;;;;1.50;1.40;;;;;;;18.58;67.88;102003.97;6122789;23;20022;-44
2023/05/08 04:52:37;;;;;;;1.23;0.90;;;;;;;18.59;67.78;102004.88;6123128;23;20018;-45
2023/05/08 04:55:03;;;;;;;1.10;1.00;;;;;;;18.58;67.60;102003.13;6122918;23;20014;-44
2023/05/08 04:57:28;;;;;;;0.95;0.95;;;;;;;18.58;67.77;102005.84;6124119;23;20006;-46
2023/05/08 04:59:54;;;;;;;1.15;1.10;;;;;;;18.58;67.78;102011.22;6123311;23;20026;-44
2023/05/08 05:02:19;;;;;;;1.27;1.02;;;;;;;18.58;67.50;102013.91;6123100;23;20005;-44
2023/05/08 05:04:44;;;;;;;0.93;0.93;;;;;;;18.57;67.70;102015.78;6123055;23;20361;-47
2023/05/08 05:07:10;;;;;;;1.08;0.98;;;;;;;18.58;67.41;102016.63;6122914;23;20325;-45
2023/05/08 05:09:36;;;;;;;1.23;1.13;;;;;;;18.58;67.67;102014.78;6122610;23;20009;-46
2023/05/08 05:12:05;;;;;;;1.40;1.20;;;;;;;18.59;67.75;102026.44;6123310;23;20057;-47
2023/05/08 05:14:31;;;;;;;1.23;0.90;;;;;;;18.58;67.34;102022.88;6122803;23;20006;-50
2023/05/08 05:16:57;;;;;;;1.33;1.23;;;;;;;18.57;67.35;102029.25;6122621;23;20016;-49
2023/05/08 05:19:22;;;;;;;1.45;1.35;;;;;;;18.58;67.40;102030.09;6122468;23;20010;-51
2023/05/08 05:21:47;;;;;;;1.15;1.10;;;;;;;18.57;67.27;102037.34;6122821;23;20009;-46
2023/05/08 05:24:13;;;;;;;1.45;1.35;;;;;;;18.56;67.19;102041.88;6122848;23;20002;-48
2023/05/08 05:26:38;;;;;;;1.25;1.15;;;;;;;18.56;66.89;102041.00;6122895;23;20005;-47
2023/05/08 05:29:04;;;;;;;2.00;1.30;;;;;;;18.55;66.84;102036.63;6122624;23;20033;-46
2023/05/08 05:31:29;;;;;;;1.33;1.23;;;;;;;18.54;67.08;102040.28;6123263;23;20005;-48
2023/05/08 05:33:55;;;;;;;1.60;1.50;;;;;;;18.54;66.74;102045.66;6122571;23;20006;-49
2023/05/08 05:36:21;;;;;;;1.95;1.85;;;;;;;18.54;66.96;102051.06;6122526;23;20010;-50
2023/05/08 05:38:46;;;;;;;1.55;1.45;;;;;;;18.53;66.89;102042.13;6122692;23;20329;-49
2023/05/08 05:41:12;;;;;;;3.10;1.80;;;;;;;18.53;66.69;102047.50;6122736;23;20080;-48
2023/05/08 05:43:37;;;;;;;1.63;1.52;;;;;;;18.53;66.63;102052.91;6122654;23;20010;-47
2023/05/08 05:46:07;;;;;;;1.75;1.65;;;;;;;18.53;66.90;102057.44;6123816;23;20017;-48
2023/05/08 05:48:33;;;;;;;4.13;1.50;;;;;;;18.52;66.56;102055.72;6123615;23;20014;-48
2023/05/08 05:50:59;;;;;;;1.80;1.70;;;;;;;18.51;66.70;102045.94;6122702;23;20624;-46
2023/05/08 05:53:24;;;;;;;1.50;1.40;;;;;;;18.52;66.84;102053.03;6122803;23;20016;-45
2023/05/08 05:55:49;;;;;;;1.60;1.50;;;;;;;18.52;66.82;102064.69;6122956;23;20010;-46
2023/05/08 05:58:15;;;;;;;1.85;1.75;;;;;;;18.51;66.97;102059.41;6122782;23;20349;-46
2023/05/08 06:00:41;;;;;;;2.28;1.90;;;;;;;18.51;66.39;102062.13;6122502;23;20036;-47
2023/05/08 06:03:07;;;;;;;1.73;1.63;;;;;;;18.50;66.67;102055.84;6122708;23;20397;-46
2023/05/08 06:05:32;;;;;;;2.47;1.60;;;;;;;18.50;66.48;102058.53;6123427;23;20029;-46
2023/05/08 06:07:58;;;;;;;1.77;1.67;;;;;;;18.51;66.87;102059.41;6123949;23;20421;-47
2023/05/08 06:10:23;;;;;;;2.03;1.88;;;;;;;18.51;66.58;102064.81;6125065;23;20439;-46
2023/05/08 06:12:49;;;;;;;3.78;2.00;;;;;;;18.51;66.37;102062.97;6123682;23;20488;-50
2023/05/08 06:15:14;;;;;;;1.63;1.52;;;;;;;18.51;66.43;102059.41;6124481;23;20006;-46
2023/05/08 06:17:40;;;;;;;2.30;2.10;;;;;;;18.49;66.53;102050.59;6124586;23;20044;-47
2023/05/08 06:20:07;;;;;;;2.47;2.17;;;;;;;18.49;66.55;102059.53;6124348;23;20013;-50
2023/05/08 06:22:32;;;;;;;1.52;1.42;;;;;;;18.49;66.46;102055.97;6125566;23;20010;-47
2023/05/08 06:24:58;;;;;;;2.15;1.95;;;;;;;18.49;66.43;102059.53;6124748;23;20336;-48
2023/05/08 06:27:24;;;;;;;2.42;1.98;;;;;;;18.49;66.46;102058.69;6124679;23;20010;-48
2023/05/08 06:29:51;;;;;;;2.55;2.35;;;;;;;18.49;66.45;102059.53;6124142;23;20333;-49
2023/05/08 06:32:20;;;;;;;2.50;2.08;;;;;;;18.49;66.20;102059.53;6124586;23;20002;-47
2023/05/08 06:34:45;;;;;;;1.60;1.50;;;;;;;18.50;66.21;102068.47;6124568;23;20009;-50
2023/05/08 06:37:11;;;;;;;1.77;1.67;;;;;;;18.50;66.36;102060.38;6124718;23;20010;-49
2023/05/08 06:39:37;;;;;;;2.35;2.15;;;;;;;18.49;66.36;102067.63;6125006;23;20005;-50
2023/05/08 06:42:05;;;;;;;2.58;2.20;;;;;;;18.49;66.15;102064.06;6124930;23;20002;-46
2023/05/08 06:44:31;;;;;;;2.60;2.30;;;;;;;18.50;66.41;102065.78;6124043;23;20006;-47
2023/05/08 06:46:56;;;;;;;2.10;2.00;;;;;;;18.50;66.13;102068.47;6124400;23;20069;-46
2023/05/08 06:49:21;;;;;;;2.33;2.13;;;;;;;18.48;66.07;102060.50;6124365;23;20034;-47
2023/05/08 06:51:47;;;;;;;2.35;2.00;;;;;;;18.50;66.25;102071.16;6124589;23;20014;-48
2023/05/08 06:54:12;;;;;;;2.42;2.22;;;;;;;18.49;66.09;102077.56;6124560;23;20428;-47
2023/05/08 06:56:38;;;;;;;2.55;2.25;;;;;;;18.49;66.19;102070.31;6124291;23;20009;-47
2023/05/08 06:59:03;;;;;;;2.47;2.22;;;;;;;18.49;66.12;102080.25;6124825;23;20092;-46
2023/05/08 07:01:28;;;;;;;2.33;2.10;;;;;;;18.49;66.35;102078.41;6123567;23;20042;-47
2023/05/08 07:03:54;;;;;;;2.38;2.17;;;;;;;18.49;65.89;102083.81;6124055;23;20017;-46
2023/05/08 07:06:19;;;;;;;2.20;2.00;;;;;;;18.49;65.97;102080.25;6124256;23;20013;-46
2023/05/08 07:08:44;;;;;;;2.40;2.20;;;;;;;18.50;65.88;102081.97;6124141;23;20010;-47
2023/05/08 07:11:10;;;;;;;3.00;2.70;;;;;;;18.48;65.76;102086.63;6123984;23;20341;-47
2023/05/08 07:13:36;;;;;;;2.65;2.38;;;;;;;18.49;65.91;102093.75;6098848;23;20014;-46
2023/05/08 07:16:02;;;;;;;3.20;2.40;;;;;;;18.48;65.88;102098.25;6124406;23;20013;-46
2023/05/08 07:18:27;;;;;;;2.60;2.35;;;;;;;18.48;65.97;102097.41;6124962;23;20960;-46
2023/05/08 07:20:53;;;;;;;2.60;2.40;;;;;;;18.47;65.85;102091.16;6124381;23;20010;-47
2023/05/08 07:23:18;;;;;;;3.80;2.58;;;;;;;18.48;65.88;102087.47;6124924;23;20018;-46
2023/05/08 07:25:44;;;;;;;3.38;2.53;;;;;;;18.48;65.67;102086.63;6124577;23;20417;-47
2023/05/08 07:28:09;;;;;;;2.47;2.28;;;;;;;18.49;65.82;102101.84;6099018;23;20013;-48
2023/05/08 07:30:35;;;;;;;2.50;2.30;;;;;;;18.48;66.14;102084.75;6124835;23;20077;-48
2023/05/08 07:33:00;;;;;;;3.63;2.67;;;;;;;18.47;65.92;102088.47;6125422;23;20079;-45
2023/05/08 07:35:26;;;;;;;2.42;2.20;;;;;;;18.48;65.70;102084.75;6124542;23;20329;-46
2023/05/08 07:37:51;;;;;;;2.60;2.38;;;;;;;18.48;65.99;102090.16;6124800;23;20006;-47
2023/05/08 07:40:17;;;;;;;2.75;2.40;;;;;;;18.48;65.95;102087.47;6124437;23;20081;-47
2023/05/08 07:42:43;;;;;;;2.30;2.10;;;;;;;18.48;66.17;102083.91;6124736;23;20013;-47
2023/05/08 07:45:10;;;;;;;2.65;2.33;;;;;;;18.49;65.93;102085.66;6124340;23;20005;-51
2023/05/08 07:47:37;;;;;;;3.03;2.72;;;;;;;18.47;65.98;102083.06;6125191;23;20333;-48
2023/05/08 07:50:03;;;;;;;2.83;2.20;;;;;;;18.48;65.70;102073.13;6124211;23;20014;-46
2023/05/08 07:52:28;;;;;;;3.10;2.72;;;;;;;18.48;65.93;102079.38;6124538;23;20016;-49
2023/05/08 07:54:54;;;;;;;2.90;2.60;;;;;;;18.48;65.68;102073.13;6124585;23;20041;-47
2023/05/08 07:57:19;;;;;;;2.20;2.08;;;;;;;18.48;65.96;102081.22;6124260;23;20006;-47
2023/05/08 07:59:45;;;;;;;2.67;2.47;;;;;;;18.48;65.80;102082.06;6124144;23;20010;-49
2023/05/08 08:02:10;;;;;;;2.80;2.60;;;;;;;18.48;65.95;102087.47;6124513;23;20011;-47
2023/05/08 08:04:35;;;;;;;2.60;2.40;;;;;;;18.49;65.81;102085.66;6125061;23;20012;-46
2023/05/08 08:07:01;;;;;;;2.85;2.65;;;;;;;18.49;65.69;102085.66;6124170;23;20033;-47
2023/05/08 08:09:26;;;;;;;2.60;2.40;;;;;;;18.49;65.93;102088.34;6124470;23;20390;-47
2023/05/08 08:11:52;;;;;;;2.85;2.60;;;;;;;18.49;65.70;102081.09;6124296;23;20009;-45
2023/05/08 08:14:17;;;;;;;2.65;2.45;;;;;;;18.49;65.64;102078.41;6123901;23;20010;-45
2023/05/08 08:16:43;;;;;;;2.63;2.17;;;;;;;18.51;65.97;102083.69;6124045;23;20010;-46
2023/05/08 08:19:09;;;;;;;2.72;2.50;;;;;;;18.49;65.84;102078.41;6098663;23;20041;-47
2023/05/08 08:21:35;;;;;;;2.50;2.30;;;;;;;18.50;65.84;102076.56;6124093;23;20381;-47
2023/05/08 08:24:00;;;;;;;2.67;2.47;;;;;;;18.50;65.63;102081.97;6124145;23;20040;-48
2023/05/08 08:26:25;;;;;;;2.60;2.40;;;;;;;18.52;65.68;102080.00;6124124;23;20377;-48
2023/05/08 08:28:51;;;;;;;2.63;2.42;;;;;;;18.51;65.59;102083.69;6124180;23;20025;-46
2023/05/08 08:31:16;;;;;;;3.05;2.78;;;;;;;18.52;65.53;102078.19;6123761;23;20005;-47
2023/05/08 08:33:42;;;;;;;3.08;2.78;;;;;;;18.52;65.86;102074.59;6123920;23;20014;-49
2023/05/08 08:36:14;;;;;;;3.75;2.90;;;;;;;18.52;65.85;102069.22;6124412;23;20336;-45
2023/05/08 08:38:40;;;;;;;3.05;2.70;;;;;;;18.51;65.74;102064.81;6124731;23;20373;-47
2023/05/08 08:41:05;;;;;;;2.95;2.75;;;;;;;18.51;65.52;102068.34;6124212;23;20021;-45
2023/05/08 08:43:31;;;;;;;2.33;2.15;;;;;;;18.51;65.60;102067.50;6123772;23;20422;-46
2023/05/08 08:45:58;;;;;;;2.97;2.60;;;;;;;18.52;65.72;102069.22;6123474;23;20010;-45
2023/05/08 08:48:27;;;;;;;2.95;2.30;;;;;;;18.52;65.63;102074.59;6124053;23;20006;-47
2023/05/08 08:50:58;;;;;;;2.85;2.65;;;;;;;18.53;65.87;102076.34;6123815;23;20013;-47
2023/05/08 08:53:33;;;;;;;2.70;2.50;;;;;;;18.53;65.77;102070.94;6123836;23;20133;-48
2023/05/08 08:56:01;;;;;;;2.97;2.53;;;;;;;18.52;65.54;102074.59;6123815;23;20014;-47
2023/05/08 08:58:35;;;;;;;2.80;2.60;;;;;;;18.52;65.59;102070.09;6123725;23;20010;-47
2023/05/08 09:01:02;;;;;;;2.72;2.53;;;;;;;18.52;65.52;102075.50;6124012;23;20435;-47
2023/05/08 09:03:30;;;;;;;2.35;2.15;;;;;;;18.52;65.38;102074.59;6123543;23;20038;-46
2023/05/08 09:05:59;;;;;;;2.58;2.38;;;;;;;18.53;65.29;102081.72;6123900;23;20014;-48
2023/05/08 09:08:25;;;;;;;2.75;2.53;;;;;;;18.54;65.56;102072.63;6123821;23;20440;-48
2023/05/08 09:10:53;;;;;;;2.78;2.58;;;;;;;18.54;65.53;102078.03;6123669;23;20006;-46
2023/05/08 09:13:19;;;;;;;2.40;2.20;;;;;;;18.54;65.50;102080.72;6123526;23;20447;-48
2023/05/08 09:15:44;;;;;;;3.17;2.88;;;;;;;18.54;65.26;102078.03;6123735;23;20009;-47
2023/05/08 09:18:09;;;;;;;2.80;2.17;;;;;;;18.55;65.33;102085.16;6124348;23;20084;-46
2023/05/08 09:20:35;;;;;;;2.70;2.50;;;;;;;18.53;65.46;102082.59;6123568;23;20409;-47
2023/05/08 09:23:03;;;;;;;2.53;2.33;;;;;;;18.55;65.29;102087.88;6123703;23;20016;-46
2023/05/08 09:25:48;;;;;;;2.25;2.08;;;;;;;18.57;65.34;102083.19;6122957;23;20294;-47
2023/05/08 09:28:24;;;;;;;2.33;2.08;;;;;;;18.56;65.44;102082.34;6122831;23;20009;-48
2023/05/08 09:30:50;;;;;;;2.15;1.95;;;;;;;18.55;65.20;102085.16;6122658;23;20006;-46
2023/05/08 09:33:16;;;;;;;2.75;2.55;;;;;;;18.55;65.47;102077.06;6122744;23;20016;-47
2023/05/08 09:35:42;;;;;;;2.00;1.80;;;;;;;18.55;65.30;102086.00;6123695;23;20329;-46
2023/05/08 09:38:07;;;;;;;2.20;2.00;;;;;;;18.57;65.43;102083.19;6122322;23;20006;-46
2023/05/08 09:40:32;;;;;;;2.00;1.90;;;;;;;18.56;65.47;102082.34;6122866;23;20440;-47
2023/05/08 09:43:12;;;;;;;2.30;2.10;;;;;;;18.58;65.67;102078.66;6124237;23;20450;-46
2023/05/08 09:45:38;;;;;;;1.88;1.77;;;;;;;18.58;65.30;102075.97;6124697;23;19998;-47
2023/05/08 09:48:05;;;;;;;2.53;2.33;;;;;;;18.57;65.54;102077.81;6124784;23;20010;-47
2023/05/08 09:50:31;;;;;;;1.63;1.52;;;;;;;18.57;65.48;102080.50;6124626;23;20022;-47
2023/05/08 09:52:57;;;;;;;1.80;1.70;;;;;;;18.58;65.43;102084.91;6125123;23;20475;-49
2023/05/08 09:55:23;;;;;;;2.10;2.00;;;;;;;18.59;65.63;102080.41;6124829;23;20034;-48
2023/05/08 09:57:51;;;;;;;1.98;1.88;;;;;;;18.60;65.52;102084.78;6124772;23;20017;-47
2023/05/08 10:00:17;;;;;;;2.17;1.90;;;;;;;18.59;65.53;102078.53;6124800;23;20033;-48
2023/05/08 10:03:02;;;;;;;1.95;1.65;;;;;;;18.61;65.51;102084.69;6125451;23;20009;-47
2023/05/08 10:05:34;;;;;;;2.00;1.90;;;;;;;18.61;65.32;102087.38;6124886;23;20069;-45
2023/05/08 10:08:22;;;;;;;2.58;1.70;;;;;;;18.63;65.30;102085.41;6124767;23;20049;-47
2023/05/08 10:10:48;;;;;;;2.42;2.22;;;;;;;18.61;65.23;102086.53;6124306;23;20010;-46
2023/05/08 10:13:13;;;;;;;2.10;2.00;;;;;;;18.60;65.19;102082.97;6124970;23;20029;-46
2023/05/08 10:15:41;;;;;;;1.75;1.60;;;;;;;18.59;65.61;102081.25;6124482;23;20097;-46
2023/05/08 10:18:09;;;;;;;1.88;1.77;;;;;;;18.60;65.25;102088.38;6124873;23;20005;-47
2023/05/08 10:20:39;;;;;;;2.10;1.90;;;;;;;18.60;65.53;102092.88;6123975;23;20056;-46
2023/05/08 10:23:10;;;;;;;2.25;2.05;;;;;;;18.59;65.41;102092.03;6124814;23;20006;-48
2023/05/08 10:25:43;;;;;;;1.75;1.60;;;;;;;18.60;65.28;102091.06;6124939;23;20013;-47
2023/05/08 10:28:27;;;;;;;1.80;1.70;;;;;;;18.62;65.62;102091.81;6123068;23;20507;-47
2023/05/08 10:30:58;;;;;;;1.83;1.73;;;;;;;18.60;65.40;102091.06;6124203;23;20329;-46
2023/05/08 10:33:28;;;;;;;2.40;2.20;;;;;;;18.61;65.52;102089.22;6123996;23;20002;-50
2023/05/08 10:35:54;;;;;;;1.85;1.75;;;;;;;18.60;65.33;102099.16;6124262;23;20254;-47
2023/05/08 10:38:21;;;;;;;2.20;2.00;;;;;;;18.61;65.20;102086.53;6124555;23;20014;-46
2023/05/08 10:40:47;;;;;;;2.20;2.00;;;;;;;18.60;65.33;102085.69;6124884;23;20328;-46
2023/05/08 10:43:14;;;;;;;2.42;1.60;;;;;;;18.60;65.23;102082.97;6124978;23;20093;-45
2023/05/08 10:45:41;;;;;;;2.15;1.88;;;;;;;18.60;65.40;102091.06;6123113;23;20065;-46
2023/05/08 10:48:39;;;;;;;1.90;1.80;;;;;;;18.60;65.36;102093.75;6124500;23;20009;-48
2023/05/08 10:51:12;;;;;;;2.00;1.80;;;;;;;18.62;65.54;102086.41;6016785;23;20028;-46
2023/05/08 10:53:49;;;;;;;2.22;1.95;;;;;;;18.62;65.38;102091.81;6095028;23;20772;-47
2023/05/08 10:56:15;;;;;;;1.70;1.60;;;;;;;18.62;65.21;102080.13;6095214;23;20041;-49
2023/05/08 10:58:40;;;;;;;2.33;2.13;;;;;;;18.63;65.12;102082.72;6093506;23;20369;-48
2023/05/08 11:01:06;;;;;;;2.38;2.03;;;;;;;18.63;65.17;102080.03;6094046;23;20339;-48
2023/05/08 11:03:40;;;;;;;2.03;1.85;;;;;;;18.64;65.34;102076.34;6093930;23;20018;-50
2023/05/08 11:06:05;;;;;;;2.20;2.00;;;;;;;18.65;65.37;102077.19;6094008;23;20006;-47
2023/05/08 11:08:31;;;;;;;1.75;1.65;;;;;;;18.66;65.13;102077.09;6093633;23;20097;-47
2023/05/08 11:11:00;;;;;;;2.30;2.10;;;;;;;18.65;65.57;102077.19;6094243;23;20014;-47
2023/05/08 11:13:33;;;;;;;2.17;1.98;;;;;;;18.67;65.48;102077.94;6094747;23;20006;-50
2023/05/08 11:15:59;;;;;;;2.00;1.90;;;;;;;18.66;65.30;102066.28;6094639;23;20021;-46
2023/05/08 11:18:26;;;;;;;2.38;2.17;;;;;;;18.68;65.02;102074.28;6094458;23;20321;-48
2023/05/08 11:20:56;;;;;;;2.40;2.20;;;;;;;18.67;65.14;102070.69;6095058;23;20006;-49
2023/05/08 11:23:26;;;;;;;1.90;1.65;;;;;;;18.68;65.35;102060.78;6094473;23;20010;-48
2023/05/08 11:26:10;;;;;;;2.20;2.00;;;;;;;18.71;65.35;102057.81;6094698;23;19998;-46
2023/05/08 11:28:53;;;;;;;2.92;2.20;;;;;;;18.68;65.31;102061.63;6094805;23;20319;-50
2023/05/08 11:31:19;;;;;;;2.40;2.17;;;;;;;18.68;65.15;102056.25;6094605;23;20011;-48